createdAt,value
2023-04-18T00:02:11.036Z,6.70
2023-04-18T00:04:38.931Z,6.40
2023-04-18T00:07:06.968Z,5.80
2023-04-18T00:09:34.715Z,5.20
2023-04-18T00:12:04.175Z,5.50
2023-04-18T00:14:34.144Z,6.20
2023-04-18T00:17:02.541Z,6.70
2023-04-18T00:19:30.245Z,7.20
2023-04-18T00:21:58.036Z,7.10
2023-04-18T00:24:25.792Z,7.80
2023-04-18T00:26:53.443Z,6.70
2023-04-18T00:29:21.036Z,5.70
2023-04-18T00:31:48.694Z,6.10
2023-04-18T00:34:16.295Z,8.20
2023-04-18T00:36:43.928Z,6.80
2023-04-18T00:39:11.578Z,7.70
2023-04-18T00:41:39.200Z,6.40
2023-04-18T00:44:06.828Z,6.00
2023-04-18T00:46:34.520Z,6.30
2023-04-18T00:49:02.493Z,6.80
2023-04-18T00:51:30.638Z,5.70
2023-04-18T00:53:58.675Z,6.10
2023-04-18T00:56:26.903Z,5.40
2023-04-18T00:58:54.651Z,5.80
2023-04-18T01:01:22.503Z,6.10
2023-04-18T01:03:50.370Z,6.00
2023-04-18T01:06:18.653Z,6.60
2023-04-18T01:08:46.707Z,5.50
2023-04-18T01:11:14.383Z,6.50
2023-04-18T01:13:42.110Z,7.10
2023-04-18T01:16:09.806Z,5.40
2023-04-18T01:18:40.224Z,6.40
2023-04-18T01:21:08.352Z,7.10
2023-04-18T01:23:36.436Z,6.60
2023-04-18T01:26:04.222Z,5.10
2023-04-18T01:28:37.346Z,6.10
2023-04-18T01:31:05.406Z,5.90
2023-04-18T01:33:33.151Z,7.40
2023-04-18T01:36:00.813Z,6.40
2023-04-18T01:38:28.487Z,6.50
2023-04-18T01:40:56.694Z,5.70
2023-04-18T01:43:24.342Z,5.30
2023-04-18T01:45:51.951Z,5.40
2023-04-18T01:48:19.652Z,6.50
2023-04-18T01:50:47.402Z,6.40
2023-04-18T01:53:15.046Z,6.50
2023-04-18T01:55:42.746Z,7.10
2023-04-18T01:58:10.391Z,7.00
2023-04-18T02:00:38.108Z,5.50
2023-04-18T02:03:05.828Z,6.00
2023-04-18T02:05:33.595Z,4.90
2023-04-18T02:08:01.354Z,5.80
2023-04-18T02:10:28.966Z,6.90
2023-04-18T02:12:56.663Z,7.80
2023-04-18T02:15:24.873Z,7.20
2023-04-18T02:17:53.459Z,7.00
2023-04-18T02:20:21.576Z,6.40
2023-04-18T02:22:49.188Z,6.50
2023-04-18T02:25:16.825Z,5.10
2023-04-18T02:27:45.180Z,5.70
2023-04-18T02:30:13.200Z,6.80
2023-04-18T02:32:40.948Z,7.00
2023-04-18T02:35:08.903Z,5.50
2023-04-18T02:37:36.656Z,7.20
2023-04-18T02:40:05.157Z,6.30
2023-04-18T02:42:33.278Z,5.80
2023-04-18T02:45:00.932Z,6.70
2023-04-18T02:47:29.476Z,5.90
2023-04-18T02:49:58.178Z,5.70
2023-04-18T02:52:26.211Z,7.10
2023-04-18T02:54:53.892Z,5.90
2023-04-18T02:57:21.557Z,6.50
2023-04-18T02:59:49.272Z,6.30
2023-04-18T03:02:17.028Z,7.20
2023-04-18T03:04:44.746Z,5.80
2023-04-18T03:07:12.372Z,6.00
2023-04-18T03:09:40.116Z,6.60
2023-04-18T03:12:07.836Z,5.90
2023-04-18T03:14:35.798Z,7.90
2023-04-18T03:17:04.264Z,8.30
2023-04-18T03:19:32.158Z,6.70
2023-04-18T03:21:59.847Z,6.50
2023-04-18T03:24:27.497Z,8.40
2023-04-18T03:26:55.259Z,8.80
2023-04-18T03:29:23.255Z,6.40
2023-04-18T03:31:50.971Z,7.20
2023-04-18T03:34:18.605Z,6.80
2023-04-18T03:36:47.957Z,8.10
2023-04-18T03:39:16.172Z,7.50
2023-04-18T03:41:43.796Z,10.20
2023-04-18T03:44:11.820Z,8.70
2023-04-18T03:46:39.897Z,8.20
2023-04-18T03:49:07.574Z,13.90
2023-04-18T03:51:44.347Z,10.80
2023-04-18T03:54:12.544Z,14.20
2023-04-18T03:56:41.523Z,15.70
2023-04-18T03:59:11.448Z,15.20
2023-04-18T04:01:39.117Z,15.40
2023-04-18T04:04:09.216Z,19.70
2023-04-18T04:06:37.802Z,20.10
2023-04-18T04:09:05.528Z,18.00
2023-04-18T04:11:33.383Z,13.20
2023-04-18T04:14:01.165Z,15.90
2023-04-18T04:16:29.002Z,19.00
2023-04-18T04:18:56.684Z,19.80
2023-04-18T04:21:24.441Z,22.10
2023-04-18T04:23:52.082Z,19.50
2023-04-18T04:26:19.736Z,21.80
2023-04-18T04:28:47.476Z,22.10
2023-04-18T04:31:16.352Z,24.40
2023-04-18T04:33:44.917Z,21.40
2023-04-18T04:36:16.674Z,13.50
2023-04-18T04:38:45.891Z,15.00
2023-04-18T04:41:13.724Z,13.80
2023-04-18T04:43:42.869Z,17.60
2023-04-18T04:46:13.626Z,16.70
2023-04-18T04:48:42.354Z,18.60
2023-04-18T04:51:10.036Z,15.70
2023-04-18T04:53:37.925Z,12.20
2023-04-18T04:56:06.105Z,20.50
2023-04-18T04:58:33.751Z,15.50
2023-04-18T05:01:01.435Z,19.20
2023-04-18T05:03:29.572Z,12.50
2023-04-18T05:05:57.685Z,16.60
2023-04-18T05:08:26.273Z,21.60
2023-04-18T05:10:55.246Z,14.30
2023-04-18T05:13:22.981Z,18.40
2023-04-18T05:15:52.036Z,17.00
2023-04-18T05:18:20.782Z,19.30
2023-04-18T05:20:48.507Z,17.70
2023-04-18T05:23:16.286Z,19.20
2023-04-18T05:25:44.045Z,18.60
2023-04-18T05:28:11.709Z,19.40
2023-04-18T05:30:40.299Z,22.80
2023-04-18T05:33:08.084Z,21.40
2023-04-18T05:35:36.342Z,19.60
2023-04-18T05:38:04.146Z,24.30
2023-04-18T05:40:31.807Z,16.30
2023-04-18T05:43:00.940Z,17.70
2023-04-18T05:45:28.700Z,19.00
2023-04-18T05:47:57.410Z,22.40
2023-04-18T05:50:25.098Z,17.70
2023-04-18T05:52:52.798Z,25.30
2023-04-18T05:55:20.684Z,18.30
2023-04-18T05:57:48.552Z,18.10
2023-04-18T06:00:17.170Z,19.20
2023-04-18T06:02:44.971Z,16.50
2023-04-18T06:05:13.476Z,23.10
2023-04-18T06:07:41.607Z,15.10
2023-04-18T06:10:13.307Z,19.00
2023-04-18T06:12:42.237Z,24.20
2023-04-18T06:15:11.389Z,23.00
2023-04-18T06:17:39.636Z,19.30
2023-04-18T06:20:07.990Z,25.70
2023-04-18T06:22:35.782Z,19.40
2023-04-18T06:25:04.172Z,24.30
2023-04-18T06:27:32.227Z,23.50
2023-04-18T06:30:00.030Z,20.70
2023-04-18T06:32:27.934Z,23.20
2023-04-18T06:34:55.781Z,15.50
2023-04-18T06:37:24.117Z,27.20
2023-04-18T06:39:51.771Z,21.40
2023-04-18T06:42:22.089Z,22.50
2023-04-18T06:44:50.622Z,34.50
2023-04-18T06:47:18.487Z,27.00
2023-04-18T06:49:46.147Z,21.50
2023-04-18T06:52:13.821Z,25.00
2023-04-18T06:54:41.809Z,23.00
2023-04-18T06:57:09.511Z,21.70
2023-04-18T06:59:37.573Z,26.90
2023-04-18T07:02:05.348Z,22.00
2023-04-18T07:04:33.112Z,22.00
2023-04-18T07:07:01.929Z,14.60
2023-04-18T07:09:29.753Z,18.20
2023-04-18T07:11:57.617Z,16.80
2023-04-18T07:14:25.741Z,18.10
2023-04-18T07:16:53.506Z,17.50
2023-04-18T07:19:21.147Z,17.30
2023-04-18T07:21:48.833Z,18.60
2023-04-18T07:24:16.679Z,16.00
2023-04-18T07:26:44.608Z,14.90
2023-04-18T07:29:12.227Z,17.10
2023-04-18T07:31:39.896Z,18.00
2023-04-18T07:34:09.029Z,15.70
2023-04-18T07:36:37.111Z,18.70
2023-04-18T07:39:04.736Z,16.10
2023-04-18T07:41:33.520Z,16.50
2023-04-18T07:44:02.413Z,14.90
2023-04-18T07:46:32.374Z,15.30
2023-04-18T07:49:02.407Z,12.90
2023-04-18T07:51:33.310Z,13.40
2023-04-18T07:54:01.202Z,15.60
2023-04-18T07:56:28.933Z,10.10
2023-04-18T07:58:56.660Z,12.10
2023-04-18T08:01:27.087Z,9.90
2023-04-18T08:03:56.629Z,12.70
2023-04-18T08:06:24.511Z,13.20
2023-04-18T08:08:52.459Z,11.30
2023-04-18T08:11:20.258Z,14.60
2023-04-18T08:13:47.912Z,13.40
2023-04-18T08:16:17.446Z,16.80
2023-04-18T08:18:45.486Z,12.10
2023-04-18T08:21:13.208Z,13.30
2023-04-18T08:23:41.014Z,15.50
2023-04-18T08:26:08.674Z,18.10
2023-04-18T08:28:36.419Z,17.00
2023-04-18T08:31:04.230Z,20.50
2023-04-18T08:33:31.870Z,23.00
2023-04-18T08:35:59.622Z,25.00
2023-04-18T08:38:27.465Z,19.50
2023-04-18T08:40:55.103Z,18.60
2023-04-18T08:43:22.960Z,17.30
2023-04-18T08:45:52.388Z,17.00
2023-04-18T08:48:20.013Z,22.00
2023-04-18T08:50:47.718Z,22.10
2023-04-18T08:53:17.864Z,18.00
2023-04-18T08:55:47.719Z,14.10
2023-04-18T08:58:22.747Z,16.20
2023-04-18T09:00:54.710Z,12.90
2023-04-18T09:03:44.225Z,14.00
2023-04-18T09:06:19.076Z,12.20
2023-04-18T09:09:04.196Z,16.10
2023-04-18T09:11:34.443Z,15.60
2023-04-18T09:14:02.592Z,11.60
2023-04-18T09:16:50.626Z,12.70
2023-04-18T09:19:18.793Z,17.00
2023-04-18T09:21:48.987Z,14.10
2023-04-18T09:24:26.395Z,14.30
2023-04-18T09:26:57.269Z,10.90
2023-04-18T09:29:46.795Z,13.60
2023-04-18T09:32:29.251Z,14.10
2023-04-18T09:35:03.926Z,11.30
2023-04-18T09:37:32.353Z,8.90
2023-04-18T09:40:00.177Z,14.70
2023-04-18T09:42:36.981Z,11.70
2023-04-18T09:45:08.296Z,13.50
2023-04-18T09:47:36.846Z,13.10
2023-04-18T09:50:09.590Z,10.90
2023-04-18T09:52:41.890Z,12.50
2023-04-18T09:55:16.407Z,12.70
2023-04-18T09:57:47.502Z,13.30
2023-04-18T10:00:26.697Z,12.00
2023-04-18T10:03:09.754Z,13.30
2023-04-18T10:05:41.451Z,14.20
2023-04-18T10:08:10.752Z,10.70
2023-04-18T10:10:39.150Z,12.00
2023-04-18T10:13:11.828Z,12.60
2023-04-18T10:15:41.767Z,12.00
2023-04-18T10:18:18.455Z,10.90
2023-04-18T10:20:47.135Z,11.70
2023-04-18T10:23:39.434Z,13.40
2023-04-18T10:26:09.631Z,12.00
2023-04-18T10:28:57.284Z,12.20
2023-04-18T10:31:27.994Z,10.90
2023-04-18T10:36:30.316Z,11.40
2023-04-18T10:39:25.136Z,10.60
2023-04-18T10:41:52.876Z,12.40
2023-04-18T10:44:24.265Z,12.50
2023-04-18T10:46:52.210Z,9.30
2023-04-18T10:49:26.060Z,10.40
2023-04-18T10:52:00.977Z,10.70
2023-04-18T10:54:46.988Z,11.00
2023-04-18T10:57:15.485Z,12.80
2023-04-18T10:59:49.300Z,10.70
2023-04-18T11:02:30.104Z,10.40
2023-04-18T11:05:02.925Z,11.60
2023-04-18T11:07:47.691Z,10.10
2023-04-18T11:10:21.878Z,10.30
2023-04-18T11:12:51.652Z,10.90
2023-04-18T11:15:22.769Z,11.20
2023-04-18T11:18:03.411Z,11.00
2023-04-18T11:20:39.910Z,11.20
2023-04-18T11:23:22.799Z,11.10
2023-04-18T11:25:53.743Z,9.60
2023-04-18T11:28:24.786Z,9.80
2023-04-18T11:30:52.530Z,10.50
2023-04-18T11:33:20.462Z,9.10
2023-04-18T11:35:48.192Z,9.90
2023-04-18T11:38:16.674Z,11.50
2023-04-18T11:40:51.120Z,12.00
2023-04-18T11:43:23.078Z,12.30
2023-04-18T11:45:59.843Z,10.90
2023-04-18T11:48:37.819Z,10.90
2023-04-18T11:51:07.502Z,10.20
2023-04-18T11:53:37.936Z,10.60
2023-04-18T11:56:06.461Z,9.50
2023-04-18T11:58:35.505Z,14.20
2023-04-18T12:01:18.384Z,11.00
2023-04-18T12:04:06.807Z,8.00
2023-04-18T12:06:53.759Z,9.40
2023-04-18T12:09:24.866Z,11.50
2023-04-18T12:12:03.520Z,11.40
2023-04-18T12:14:31.384Z,11.10
2023-04-18T12:16:59.320Z,11.00
2023-04-18T12:19:29.814Z,9.50
2023-04-18T12:22:10.008Z,10.30
2023-04-18T12:24:38.072Z,10.70
2023-04-18T12:27:06.013Z,11.30
2023-04-18T12:29:33.669Z,13.60
2023-04-18T12:32:01.701Z,11.20
2023-04-18T12:34:30.657Z,10.10
2023-04-18T12:36:58.331Z,9.50
2023-04-18T12:39:26.240Z,10.20
2023-04-18T12:41:53.968Z,8.30
2023-04-18T12:44:22.706Z,7.50
2023-04-18T12:46:51.083Z,8.80
2023-04-18T12:49:18.864Z,9.10
2023-04-18T12:51:46.559Z,9.80
2023-04-18T12:54:14.507Z,9.40
2023-04-18T12:56:42.649Z,9.20
2023-04-18T12:59:10.469Z,9.60
2023-04-18T13:01:38.196Z,11.40
2023-04-18T13:04:12.233Z,10.70
2023-04-18T13:06:41.485Z,8.90
2023-04-18T13:09:09.366Z,10.60
2023-04-18T13:11:37.041Z,10.10
2023-04-18T13:14:04.681Z,9.40
2023-04-18T13:16:32.383Z,8.00
2023-04-18T13:19:00.141Z,10.70
2023-04-18T13:21:28.265Z,9.30
2023-04-18T13:23:55.955Z,12.30
2023-04-18T13:26:23.772Z,6.90
2023-04-18T13:28:51.571Z,8.90
2023-04-18T13:31:19.437Z,7.80
2023-04-18T13:33:47.084Z,9.60
2023-04-18T13:36:14.823Z,7.70
2023-04-18T13:38:43.180Z,8.80
2023-04-18T13:41:13.289Z,10.30
2023-04-18T13:43:41.445Z,10.80
2023-04-18T13:46:09.118Z,10.40
2023-04-18T13:48:36.804Z,11.30
2023-04-18T13:51:04.798Z,9.70
2023-04-18T13:53:32.527Z,10.10
2023-04-18T13:56:01.764Z,15.00
2023-04-18T13:58:30.250Z,13.40
2023-04-18T14:01:02.284Z,10.90
2023-04-18T14:03:30.792Z,12.60
2023-04-18T14:05:59.387Z,10.80
2023-04-18T14:08:27.003Z,12.50
2023-04-18T14:10:54.658Z,10.00
2023-04-18T14:13:22.308Z,11.20
2023-04-18T14:15:50.015Z,11.60
2023-04-18T14:18:21.651Z,12.10
2023-04-18T14:20:49.533Z,11.40
2023-04-18T14:23:18.442Z,11.40
2023-04-18T14:25:46.116Z,12.90
2023-04-18T14:28:14.076Z,10.70
2023-04-18T14:30:41.717Z,12.90
2023-04-18T14:33:10.184Z,11.10
2023-04-18T14:35:38.674Z,11.80
2023-04-18T14:38:06.530Z,10.90
2023-04-18T14:40:34.282Z,10.50
2023-04-18T14:43:02.481Z,10.40
2023-04-18T14:45:34.028Z,15.40
2023-04-18T14:48:01.983Z,10.40
2023-04-18T14:50:30.986Z,10.40
2023-04-18T14:52:59.009Z,10.80
2023-04-18T14:55:26.838Z,10.50
2023-04-18T14:57:54.881Z,9.80
2023-04-18T15:00:22.770Z,12.40
2023-04-18T15:02:50.806Z,11.20
2023-04-18T15:05:23.686Z,12.60
2023-04-18T15:07:52.064Z,9.90
2023-04-18T15:10:22.508Z,10.20
2023-04-18T15:12:51.203Z,9.60
2023-04-18T15:15:19.543Z,11.10
2023-04-18T15:17:47.199Z,11.40
2023-04-18T15:20:15.124Z,12.70
2023-04-18T15:22:42.847Z,11.80
2023-04-18T15:25:10.629Z,10.60
2023-04-18T15:27:38.276Z,15.90
2023-04-18T15:30:08.239Z,15.90
2023-04-18T15:32:36.910Z,15.20
2023-04-18T15:35:05.294Z,19.50
2023-04-18T15:37:32.978Z,18.80
2023-04-18T15:40:00.856Z,15.20
2023-04-18T15:42:30.205Z,16.60
2023-04-18T15:44:58.176Z,19.70
2023-04-18T15:47:26.112Z,16.60
2023-04-18T15:49:53.847Z,16.30
2023-04-18T15:52:21.601Z,16.70
2023-04-18T15:54:51.913Z,15.20
2023-04-18T15:57:19.521Z,16.40
2023-04-18T15:59:47.156Z,15.20
2023-04-18T16:02:15.026Z,15.50
2023-04-18T16:04:43.152Z,18.60
2023-04-18T16:07:11.778Z,16.70
2023-04-18T16:09:39.474Z,16.40
2023-04-18T16:12:08.256Z,16.50
2023-04-18T16:14:35.908Z,13.30
2023-04-18T16:17:03.731Z,17.70
2023-04-18T16:19:32.922Z,14.40
2023-04-18T16:22:01.500Z,17.20
2023-04-18T16:24:30.272Z,13.70
2023-04-18T16:26:58.612Z,14.70
2023-04-18T16:29:26.374Z,18.30
2023-04-18T16:31:54.283Z,13.30
2023-04-18T16:34:22.206Z,17.40
2023-04-18T16:36:51.162Z,19.80
2023-04-18T16:39:19.333Z,17.60
2023-04-18T16:41:47.074Z,15.30
2023-04-18T16:44:14.843Z,13.60
2023-04-18T16:46:42.919Z,15.80
2023-04-18T16:49:11.535Z,13.80
2023-04-18T16:51:39.670Z,17.00
2023-04-18T16:54:08.689Z,15.00
2023-04-18T16:56:36.302Z,21.50
2023-04-18T16:59:04.181Z,20.70
2023-04-18T17:01:34.079Z,18.20
2023-04-18T17:04:02.468Z,20.40
2023-04-18T17:06:31.518Z,13.70
2023-04-18T17:08:59.614Z,12.30
2023-04-18T17:11:27.215Z,12.00
2023-04-18T17:13:54.890Z,16.30
2023-04-18T17:16:22.643Z,14.00
2023-04-18T17:18:50.269Z,13.80
2023-04-18T17:21:17.873Z,13.20
2023-04-18T17:23:46.048Z,16.20
2023-04-18T17:26:13.725Z,17.90
2023-04-18T17:28:41.389Z,11.60
2023-04-18T17:31:09.209Z,16.60
2023-04-18T17:33:37.234Z,12.90
2023-04-18T17:36:06.432Z,17.20
2023-04-18T17:38:35.582Z,13.70
2023-04-18T17:41:06.008Z,15.10
2023-04-18T17:43:33.710Z,17.30
2023-04-18T17:46:03.622Z,16.40
2023-04-18T17:48:31.545Z,19.70
2023-04-18T17:50:59.241Z,18.70
2023-04-18T17:53:26.945Z,16.70
2023-04-18T17:55:59.288Z,20.10
2023-04-18T17:58:27.306Z,22.60
2023-04-18T18:00:55.048Z,15.00
2023-04-18T18:03:23.239Z,15.10
2023-04-18T18:05:51.895Z,16.90
2023-04-18T18:08:19.655Z,17.60
2023-04-18T18:10:47.690Z,17.40
2023-04-18T18:13:15.739Z,19.40
2023-04-18T18:15:43.615Z,19.90
2023-04-18T18:18:11.491Z,18.40
2023-04-18T18:20:43.121Z,18.50
2023-04-18T18:23:11.059Z,20.10
2023-04-18T18:25:39.016Z,16.10
2023-04-18T18:28:07.232Z,24.50
2023-04-18T18:30:37.448Z,17.90
2023-04-18T18:33:05.669Z,17.70
2023-04-18T18:35:33.413Z,19.80
2023-04-18T18:38:01.338Z,18.90
2023-04-18T18:40:29.069Z,15.20
2023-04-18T18:42:57.349Z,17.90
2023-04-18T18:45:24.995Z,18.30
2023-04-18T18:47:52.659Z,20.50
2023-04-18T18:50:20.406Z,34.90
2023-04-18T18:52:48.455Z,33.50
2023-04-18T18:55:16.563Z,24.30
2023-04-18T18:57:44.725Z,19.90
2023-04-18T19:00:13.434Z,18.20
2023-04-18T19:02:41.337Z,18.50
2023-04-18T19:05:09.820Z,19.60
2023-04-18T19:07:37.450Z,16.80
2023-04-18T19:10:06.447Z,15.90
2023-04-18T19:12:34.080Z,16.90
2023-04-18T19:15:01.828Z,17.90
2023-04-18T19:17:31.066Z,18.10
2023-04-18T19:20:01.221Z,21.60
2023-04-18T19:22:30.546Z,30.20
2023-04-18T19:25:00.477Z,23.80
2023-04-18T19:27:28.238Z,23.50
2023-04-18T19:29:55.915Z,29.20
2023-04-18T19:32:23.601Z,25.60
2023-04-18T19:34:51.504Z,22.60
2023-04-18T19:37:19.228Z,28.70
2023-04-18T19:39:46.941Z,21.40
2023-04-18T19:42:14.798Z,22.50
2023-04-18T19:44:42.520Z,19.10
2023-04-18T19:47:10.246Z,19.60
2023-04-18T19:49:38.096Z,23.10
2023-04-18T19:52:06.432Z,21.70
2023-04-18T19:54:34.051Z,24.80
2023-04-18T19:57:02.481Z,25.20
2023-04-18T19:59:30.148Z,24.40
2023-04-18T20:02:00.278Z,22.20
2023-04-18T20:04:31.579Z,27.30
2023-04-18T20:06:59.591Z,24.80
2023-04-18T20:09:27.240Z,27.40
2023-04-18T20:11:55.172Z,27.20
2023-04-18T20:14:22.953Z,24.80
2023-04-18T20:16:50.916Z,25.20
2023-04-18T20:19:19.572Z,25.70
2023-04-18T20:21:47.216Z,23.60
2023-04-18T20:24:15.689Z,25.50
2023-04-18T20:26:43.374Z,24.80
2023-04-18T20:29:11.267Z,30.00
2023-04-18T20:31:42.162Z,26.60
2023-04-18T20:34:10.158Z,27.30
2023-04-18T20:36:41.534Z,26.70
2023-04-18T20:39:09.361Z,29.60
2023-04-18T20:41:36.977Z,27.40
2023-04-18T20:44:10.044Z,26.30
2023-04-18T20:46:37.768Z,28.80
2023-04-18T20:49:07.879Z,25.80
2023-04-18T20:51:37.077Z,29.20
2023-04-18T20:54:05.677Z,29.30
2023-04-18T20:56:33.941Z,27.90
2023-04-18T20:59:01.967Z,30.40
2023-04-18T21:01:29.652Z,26.00
2023-04-18T21:03:57.831Z,24.60
2023-04-18T21:06:25.627Z,29.30
2023-04-18T21:08:53.206Z,27.10
2023-04-18T21:11:20.866Z,26.20
2023-04-18T21:13:48.494Z,26.50
2023-04-18T21:16:16.234Z,29.40
2023-04-18T21:18:43.892Z,26.50
2023-04-18T21:21:11.866Z,28.10
2023-04-18T21:23:44.230Z,25.90
2023-04-18T21:26:13.658Z,24.80
2023-04-18T21:28:59.696Z,28.00
2023-04-18T21:31:30.745Z,22.30
2023-04-18T21:34:01.352Z,27.80
2023-04-18T21:36:31.035Z,22.70
2023-04-18T21:39:01.192Z,28.70
2023-04-18T21:41:29.011Z,28.40
2023-04-18T21:43:56.714Z,26.80
2023-04-18T21:46:25.536Z,23.70
2023-04-18T21:48:53.366Z,25.70
2023-04-18T21:51:21.052Z,23.10
2023-04-18T21:53:48.715Z,24.70
2023-04-18T21:56:16.886Z,26.40
2023-04-18T21:58:44.656Z,23.70
2023-04-18T22:01:12.609Z,20.80
2023-04-18T22:03:40.502Z,21.10
2023-04-18T22:06:08.337Z,19.80
2023-04-18T22:08:36.117Z,20.80
2023-04-18T22:11:04.862Z,21.00
2023-04-18T22:13:35.746Z,20.00
2023-04-18T22:16:03.817Z,21.00
2023-04-18T22:18:34.558Z,22.50
2023-04-18T22:21:03.432Z,19.40
2023-04-18T22:23:31.508Z,17.40
2023-04-18T22:25:59.333Z,18.80
2023-04-18T22:28:30.400Z,21.20
2023-04-18T22:30:58.185Z,22.20
2023-04-18T22:33:25.992Z,23.30
2023-04-18T22:35:54.356Z,19.60
2023-04-18T22:38:22.115Z,22.60
2023-04-18T22:40:49.720Z,20.00
2023-04-18T22:43:22.523Z,20.10
2023-04-18T22:45:51.562Z,18.90
2023-04-18T22:48:19.344Z,24.50
2023-04-18T22:50:47.404Z,21.60
2023-04-18T22:53:16.114Z,20.20
2023-04-18T22:55:45.545Z,19.50
2023-04-18T22:58:13.709Z,42.80
2023-04-18T23:00:41.429Z,27.70
2023-04-18T23:03:09.366Z,20.30
2023-04-18T23:05:37.284Z,22.70
2023-04-18T23:08:06.926Z,21.60
2023-04-18T23:10:34.986Z,19.60
2023-04-18T23:13:02.734Z,20.00
2023-04-18T23:15:30.513Z,21.20
2023-04-18T23:17:58.183Z,15.20
2023-04-18T23:20:25.856Z,17.90
2023-04-18T23:22:55.370Z,20.90
2023-04-18T23:25:23.072Z,18.40
2023-04-18T23:27:50.728Z,19.80
2023-04-18T23:30:18.380Z,16.80
2023-04-18T23:32:46.054Z,19.70
2023-04-18T23:35:13.740Z,18.80
2023-04-18T23:37:42.257Z,18.70
2023-04-18T23:40:09.945Z,15.30
2023-04-18T23:42:37.836Z,15.80
2023-04-18T23:45:06.531Z,18.10
2023-04-18T23:47:34.235Z,17.40
2023-04-18T23:50:02.391Z,19.40
2023-04-18T23:52:30.180Z,15.30
2023-04-18T23:55:01.859Z,15.20
2023-04-18T23:57:29.859Z,14.30
2023-04-18T23:59:57.562Z,16.70
